createdAt,value
2023-02-27T00:02:19.815Z,1.60
2023-02-27T00:04:47.416Z,1.52
2023-02-27T00:07:14.825Z,1.42
2023-02-27T00:09:43.321Z,1.60
2023-02-27T00:12:12.882Z,1.30
2023-02-27T00:14:40.029Z,1.13
2023-02-27T00:17:08.275Z,2.20
2023-02-27T00:19:36.606Z,2.10
2023-02-27T00:22:04.818Z,1.90
2023-02-27T00:24:32.286Z,2.00
2023-02-27T00:26:59.924Z,2.35
2023-02-27T00:29:27.378Z,2.00
2023-02-27T00:31:54.752Z,1.77
2023-02-27T00:34:22.191Z,1.73
2023-02-27T00:36:49.370Z,1.77
2023-02-27T00:39:16.854Z,1.40
2023-02-27T00:41:44.112Z,2.25
2023-02-27T00:44:11.240Z,1.70
2023-02-27T00:46:42.076Z,1.58
2023-02-27T00:49:09.354Z,1.75
2023-02-27T00:51:36.812Z,1.67
2023-02-27T00:54:04.395Z,1.25
2023-02-27T00:56:32.209Z,1.60
2023-02-27T00:58:59.412Z,1.58
2023-02-27T01:01:27.126Z,1.55
2023-02-27T01:03:54.406Z,1.52
2023-02-27T01:06:24.890Z,1.65
2023-02-27T01:08:55.983Z,1.35
2023-02-27T01:11:23.592Z,1.40
2023-02-27T01:13:53.095Z,1.23
2023-02-27T01:16:20.259Z,1.63
2023-02-27T01:18:48.256Z,1.42
2023-02-27T01:21:15.640Z,1.50
2023-02-27T01:23:43.021Z,1.15
2023-02-27T01:26:10.352Z,1.30
2023-02-27T01:28:38.045Z,1.05
2023-02-27T01:31:05.574Z,1.42
2023-02-27T01:33:33.074Z,1.15
2023-02-27T01:36:02.412Z,1.48
2023-02-27T01:38:31.392Z,1.15
2023-02-27T01:41:00.660Z,1.27
2023-02-27T01:43:28.934Z,2.17
2023-02-27T01:45:56.204Z,1.25
2023-02-27T01:48:31.668Z,1.52
2023-02-27T01:51:03.457Z,1.48
2023-02-27T01:53:32.517Z,1.30
2023-02-27T01:56:03.422Z,1.00
2023-02-27T01:58:30.851Z,1.35
2023-02-27T02:01:02.598Z,1.20
2023-02-27T02:03:48.707Z,1.23
2023-02-27T02:06:16.594Z,1.33
2023-02-27T02:08:45.972Z,1.50
2023-02-27T02:11:14.449Z,1.58
2023-02-27T02:13:42.366Z,1.25
2023-02-27T02:16:28.609Z,1.40
2023-02-27T02:18:59.005Z,1.55
2023-02-27T02:21:36.640Z,1.45
2023-02-27T02:24:07.044Z,1.27
2023-02-27T02:26:40.628Z,1.30
2023-02-27T02:29:24.100Z,1.42
2023-02-27T02:32:10.041Z,1.63
2023-02-27T02:34:56.701Z,1.75
2023-02-27T02:37:38.909Z,1.20
2023-02-27T02:40:07.306Z,1.30
2023-02-27T02:42:39.363Z,1.42
2023-02-27T02:45:06.693Z,1.60
2023-02-27T02:47:49.110Z,1.70
2023-02-27T02:50:25.685Z,1.75
2023-02-27T02:52:54.311Z,1.50
2023-02-27T02:55:24.999Z,1.80
2023-02-27T02:58:05.048Z,1.57
2023-02-27T03:00:34.050Z,1.55
2023-02-27T03:03:11.464Z,1.70
2023-02-27T03:05:41.771Z,1.95
2023-02-27T03:08:14.536Z,1.83
2023-02-27T03:10:45.498Z,1.88
2023-02-27T03:13:17.799Z,1.80
2023-02-27T03:15:51.396Z,1.73
2023-02-27T03:18:25.365Z,1.70
2023-02-27T03:21:05.798Z,1.42
2023-02-27T03:23:44.186Z,1.40
2023-02-27T03:26:15.416Z,1.70
2023-02-27T03:28:56.421Z,1.77
2023-02-27T03:31:28.553Z,1.42
2023-02-27T03:34:01.596Z,1.60
2023-02-27T03:36:44.237Z,1.42
2023-02-27T03:39:17.802Z,1.60
2023-02-27T03:41:51.211Z,1.60
2023-02-27T03:44:26.637Z,1.38
2023-02-27T03:46:53.796Z,1.55
2023-02-27T03:49:23.520Z,1.50
2023-02-27T03:51:51.089Z,1.35
2023-02-27T03:54:22.333Z,1.30
2023-02-27T03:57:02.003Z,1.38
2023-02-27T03:59:31.376Z,1.33
2023-02-27T04:02:00.933Z,1.55
2023-02-27T04:04:32.222Z,1.27
2023-02-27T04:07:22.745Z,1.40
2023-02-27T04:10:14.419Z,1.40
2023-02-27T04:13:02.921Z,1.05
2023-02-27T04:15:50.560Z,1.10
2023-02-27T04:18:30.498Z,1.40
2023-02-27T04:20:58.939Z,1.30
2023-02-27T04:23:26.123Z,1.27
2023-02-27T04:26:16.176Z,1.40
2023-02-27T04:29:10.982Z,1.40
2023-02-27T04:31:50.489Z,1.30
2023-02-27T04:34:27.499Z,1.48
2023-02-27T04:37:02.158Z,1.30
2023-02-27T04:39:38.549Z,1.23
2023-02-27T04:42:14.392Z,1.92
2023-02-27T04:44:42.765Z,1.10
2023-02-27T04:47:12.540Z,1.50
2023-02-27T04:49:48.838Z,1.40
2023-02-27T04:52:32.387Z,2.03
2023-02-27T04:55:17.889Z,1.30
2023-02-27T04:57:55.674Z,1.70
2023-02-27T05:00:25.527Z,1.23
2023-02-27T05:02:54.055Z,1.40
2023-02-27T05:05:27.032Z,1.65
2023-02-27T05:08:10.200Z,1.40
2023-02-27T05:11:06.994Z,1.20
2023-02-27T05:13:48.332Z,1.48
2023-02-27T05:16:21.638Z,1.50
2023-02-27T05:18:52.546Z,1.42
2023-02-27T05:21:28.586Z,2.03
2023-02-27T05:23:59.099Z,1.20
2023-02-27T05:26:36.262Z,1.35
2023-02-27T05:29:06.555Z,1.38
2023-02-27T05:31:56.081Z,1.48
2023-02-27T05:34:31.426Z,1.50
2023-02-27T05:37:02.740Z,1.80
2023-02-27T05:39:32.442Z,1.75
2023-02-27T05:42:02.517Z,1.90
2023-02-27T05:44:38.572Z,1.60
2023-02-27T05:47:08.848Z,1.58
2023-02-27T05:49:48.484Z,1.92
2023-02-27T05:52:20.165Z,1.67
2023-02-27T05:54:57.678Z,1.38
2023-02-27T05:57:51.281Z,1.77
2023-02-27T06:00:22.099Z,1.70
2023-02-27T06:02:50.673Z,1.55
2023-02-27T06:05:19.392Z,1.60
2023-02-27T06:07:46.900Z,1.67
2023-02-27T06:10:17.734Z,1.83
2023-02-27T06:12:46.562Z,1.55
2023-02-27T06:15:14.037Z,1.80
2023-02-27T06:17:47.905Z,1.40
2023-02-27T06:20:17.477Z,2.00
2023-02-27T06:22:46.740Z,1.80
2023-02-27T06:25:15.028Z,1.80
2023-02-27T06:27:42.403Z,1.60
2023-02-27T06:30:11.251Z,1.85
2023-02-27T06:32:38.820Z,1.90
2023-02-27T06:35:06.646Z,2.30
2023-02-27T06:37:34.139Z,2.20
2023-02-27T06:40:02.528Z,2.08
2023-02-27T06:42:29.816Z,2.00
2023-02-27T06:44:57.015Z,1.77
2023-02-27T06:47:24.426Z,1.85
2023-02-27T06:49:54.797Z,1.80
2023-02-27T06:52:23.235Z,1.85
2023-02-27T06:54:51.215Z,1.60
2023-02-27T06:57:18.742Z,1.70
2023-02-27T06:59:46.981Z,1.95
2023-02-27T07:02:25.900Z,1.52
2023-02-27T07:04:55.035Z,1.55
2023-02-27T07:07:34.282Z,1.40
2023-02-27T07:10:06.552Z,1.42
2023-02-27T07:12:34.968Z,2.25
2023-02-27T07:15:08.323Z,1.85
2023-02-27T07:17:35.898Z,2.15
2023-02-27T07:20:03.892Z,1.90
2023-02-27T07:22:31.268Z,2.03
2023-02-27T07:24:59.520Z,1.83
2023-02-27T07:27:28.053Z,2.65
2023-02-27T07:29:55.328Z,1.70
2023-02-27T07:32:25.223Z,1.77
2023-02-27T07:34:52.766Z,1.73
2023-02-27T07:37:20.303Z,1.98
2023-02-27T07:39:56.613Z,2.30
2023-02-27T07:42:24.111Z,1.80
2023-02-27T07:44:51.582Z,1.67
2023-02-27T07:47:20.886Z,2.03
2023-02-27T07:49:48.069Z,1.92
2023-02-27T07:52:15.423Z,2.65
2023-02-27T07:54:44.202Z,2.05
2023-02-27T07:57:12.495Z,1.55
2023-02-27T07:59:40.813Z,2.70
2023-02-27T08:02:08.148Z,1.58
2023-02-27T08:04:37.616Z,1.65
2023-02-27T08:07:06.742Z,1.88
2023-02-27T08:09:36.561Z,1.80
2023-02-27T08:12:05.220Z,1.23
2023-02-27T08:14:32.630Z,1.83
2023-02-27T08:17:01.096Z,1.40
2023-02-27T08:19:28.577Z,1.50
2023-02-27T08:21:58.001Z,1.75
2023-02-27T08:24:26.335Z,1.73
2023-02-27T08:27:03.027Z,1.48
2023-02-27T08:29:32.341Z,1.20
2023-02-27T08:32:00.403Z,1.83
2023-02-27T08:34:30.581Z,1.55
2023-02-27T08:37:01.337Z,1.70
2023-02-27T08:39:29.525Z,1.95
2023-02-27T08:41:57.051Z,1.55
2023-02-27T08:44:24.323Z,1.85
2023-02-27T08:46:51.861Z,1.77
2023-02-27T08:49:27.285Z,2.20
2023-02-27T08:51:54.725Z,1.48
2023-02-27T08:54:24.066Z,1.52
2023-02-27T08:56:51.370Z,1.70
2023-02-27T08:59:25.027Z,1.70
2023-02-27T09:01:52.425Z,1.90
2023-02-27T09:04:21.167Z,1.30
2023-02-27T09:06:49.003Z,1.40
2023-02-27T09:09:16.324Z,1.38
2023-02-27T09:11:46.276Z,1.20
2023-02-27T09:14:14.166Z,1.50
2023-02-27T09:16:41.587Z,1.38
2023-02-27T09:19:09.014Z,1.13
2023-02-27T09:21:37.473Z,1.65
2023-02-27T09:24:19.078Z,1.30
2023-02-27T09:26:49.884Z,1.35
2023-02-27T09:29:18.652Z,1.30
2023-02-27T09:31:48.594Z,1.20
2023-02-27T09:34:22.246Z,1.50
2023-02-27T09:36:49.504Z,1.60
2023-02-27T09:39:17.842Z,1.35
2023-02-27T09:41:58.319Z,1.70
2023-02-27T09:44:45.669Z,1.35
2023-02-27T09:47:19.632Z,1.30
2023-02-27T09:50:07.376Z,1.45
2023-02-27T09:52:35.847Z,1.23
2023-02-27T09:55:13.028Z,1.42
2023-02-27T09:57:43.984Z,1.70
2023-02-27T10:00:30.624Z,1.40
2023-02-27T10:03:19.738Z,1.30
2023-02-27T10:06:07.279Z,1.08
2023-02-27T10:08:42.747Z,1.30
2023-02-27T10:11:29.511Z,1.40
2023-02-27T10:14:01.888Z,1.20
2023-02-27T10:16:30.927Z,0.90
2023-02-27T10:19:00.783Z,1.30
2023-02-27T10:21:33.849Z,1.48
2023-02-27T10:24:07.851Z,1.30
2023-02-27T10:26:40.614Z,1.30
2023-02-27T10:29:31.144Z,1.27
2023-02-27T10:32:04.351Z,1.20
2023-02-27T10:34:41.387Z,1.00
2023-02-27T10:37:10.611Z,1.40
2023-02-27T10:39:46.482Z,1.23
2023-02-27T10:42:16.074Z,1.17
2023-02-27T10:44:45.948Z,1.20
2023-02-27T10:47:16.875Z,1.10
2023-02-27T10:49:47.754Z,1.42
2023-02-27T10:52:18.572Z,1.20
2023-02-27T10:54:47.934Z,1.20
2023-02-27T10:57:33.866Z,1.23
2023-02-27T11:00:06.725Z,1.00
2023-02-27T11:02:39.223Z,1.08
2023-02-27T11:05:17.318Z,1.10
2023-02-27T11:07:44.944Z,1.70
2023-02-27T11:10:23.145Z,1.30
2023-02-27T11:13:05.252Z,1.40
2023-02-27T11:15:35.890Z,1.30
2023-02-27T11:18:21.789Z,1.35
2023-02-27T11:20:50.875Z,1.40
2023-02-27T11:23:20.616Z,1.70
2023-02-27T11:25:48.506Z,1.50
2023-02-27T11:28:28.203Z,1.30
2023-02-27T11:31:00.631Z,1.40
2023-02-27T11:33:29.139Z,1.17
2023-02-27T11:35:58.519Z,1.30
2023-02-27T11:38:27.908Z,1.85
2023-02-27T11:40:58.812Z,1.23
2023-02-27T11:43:27.752Z,1.50
2023-02-27T11:46:12.167Z,1.30
2023-02-27T11:48:49.838Z,1.40
2023-02-27T11:51:37.897Z,1.25
2023-02-27T11:54:09.548Z,1.35
2023-02-27T11:56:55.714Z,1.23
2023-02-27T11:59:28.732Z,1.20
2023-02-27T12:02:00.402Z,1.20
2023-02-27T12:04:33.761Z,1.48
2023-02-27T12:07:05.305Z,1.30
2023-02-27T12:09:51.630Z,1.33
2023-02-27T12:12:29.677Z,0.90
2023-02-27T12:15:11.330Z,1.10
2023-02-27T12:17:50.106Z,1.30
2023-02-27T12:20:29.335Z,0.90
2023-02-27T12:22:56.942Z,1.20
2023-02-27T12:25:45.281Z,1.10
2023-02-27T12:28:29.841Z,1.30
2023-02-27T12:31:08.186Z,1.20
2023-02-27T12:33:43.486Z,1.20
2023-02-27T12:36:13.927Z,1.00
2023-02-27T12:38:41.528Z,1.20
2023-02-27T12:41:23.455Z,1.30
2023-02-27T12:44:26.998Z,0.90
2023-02-27T12:47:02.858Z,1.45
2023-02-27T12:49:30.809Z,1.55
2023-02-27T12:52:06.626Z,1.88
2023-02-27T12:54:37.461Z,1.10
2023-02-27T12:57:25.998Z,1.38
2023-02-27T13:00:09.699Z,1.10
2023-02-27T13:02:48.272Z,1.25
2023-02-27T13:05:25.662Z,1.08
2023-02-27T13:08:08.339Z,1.00
2023-02-27T13:10:39.740Z,1.30
2023-02-27T13:13:22.271Z,1.13
2023-02-27T13:16:00.002Z,1.10
2023-02-27T13:18:34.283Z,1.30
2023-02-27T13:21:08.108Z,1.50
2023-02-27T13:23:53.190Z,1.50
2023-02-27T13:26:46.700Z,1.38
2023-02-27T13:29:15.671Z,1.00
2023-02-27T13:31:47.705Z,1.20
2023-02-27T13:34:20.802Z,1.40
2023-02-27T13:36:51.203Z,1.15
2023-02-27T13:39:37.103Z,1.15
2023-02-27T13:42:06.235Z,1.00
2023-02-27T13:44:36.692Z,1.20
2023-02-27T13:47:23.799Z,1.38
2023-02-27T13:49:53.295Z,1.08
2023-02-27T13:52:31.246Z,1.20
2023-02-27T13:55:06.236Z,1.23
2023-02-27T13:57:39.101Z,0.88
2023-02-27T14:00:19.586Z,1.00
2023-02-27T14:02:59.809Z,0.90
2023-02-27T14:05:33.717Z,1.38
2023-02-27T14:08:04.226Z,0.98
2023-02-27T14:10:33.300Z,0.90
2023-02-27T14:13:01.310Z,1.05
2023-02-27T14:15:32.527Z,0.77
2023-02-27T14:20:43.236Z,1.10
2023-02-27T14:23:21.411Z,1.08
2023-02-27T14:25:52.105Z,0.90
2023-02-27T14:28:23.762Z,1.00
2023-02-27T14:30:59.366Z,1.23
2023-02-27T14:33:40.166Z,1.00
2023-02-27T14:38:40.653Z,1.10
2023-02-27T14:41:15.558Z,1.10
2023-02-27T14:43:55.133Z,1.20
2023-02-27T14:46:26.153Z,1.10
2023-02-27T14:48:54.378Z,1.00
2023-02-27T14:51:22.731Z,2.15
2023-02-27T14:54:14.656Z,1.20
2023-02-27T14:56:42.421Z,1.00
2023-02-27T14:59:36.797Z,1.13
2023-02-27T15:02:04.572Z,1.00
2023-02-27T15:04:34.004Z,1.13
2023-02-27T15:07:01.549Z,1.38
2023-02-27T15:09:32.840Z,1.20
2023-02-27T15:14:38.252Z,0.90
2023-02-27T15:17:15.414Z,1.08
2023-02-27T15:19:53.797Z,1.10
2023-02-27T15:22:37.637Z,0.88
2023-02-27T15:25:07.875Z,0.85
2023-02-27T15:27:42.655Z,1.02
2023-02-27T15:30:20.317Z,1.10
2023-02-27T15:32:48.529Z,1.20
2023-02-27T15:35:18.276Z,1.40
2023-02-27T15:37:56.618Z,1.15
2023-02-27T15:40:26.821Z,1.10
2023-02-27T15:42:55.177Z,1.15
2023-02-27T15:45:24.848Z,1.40
2023-02-27T15:47:53.227Z,1.35
2023-02-27T15:50:25.747Z,1.27
2023-02-27T15:52:55.070Z,1.17
2023-02-27T15:55:26.291Z,1.20
2023-02-27T16:00:35.158Z,1.10
2023-02-27T16:03:03.558Z,0.98
2023-02-27T16:05:39.708Z,1.00
2023-02-27T16:08:07.285Z,0.93
2023-02-27T16:10:44.510Z,0.98
2023-02-27T16:13:31.521Z,1.10
2023-02-27T16:16:01.837Z,1.00
2023-02-27T16:18:31.488Z,1.23
2023-02-27T16:21:13.121Z,1.10
2023-02-27T16:23:41.154Z,1.23
2023-02-27T16:26:27.567Z,1.40
2023-02-27T16:29:02.651Z,1.33
2023-02-27T16:31:35.897Z,1.35
2023-02-27T16:34:28.011Z,1.30
2023-02-27T16:37:02.021Z,1.35
2023-02-27T16:39:31.707Z,1.60
2023-02-27T16:42:02.828Z,1.52
2023-02-27T16:44:30.955Z,1.58
2023-02-27T16:47:02.185Z,1.60
2023-02-27T16:49:33.699Z,1.40
2023-02-27T16:52:02.702Z,1.40
2023-02-27T16:54:30.144Z,1.38
2023-02-27T16:57:02.835Z,1.33
2023-02-27T16:59:37.603Z,1.58
2023-02-27T17:02:06.649Z,1.30
2023-02-27T17:04:34.034Z,1.50
2023-02-27T17:07:08.203Z,1.70
2023-02-27T17:09:36.696Z,1.63
2023-02-27T17:12:06.954Z,1.65
2023-02-27T17:14:35.412Z,1.77
2023-02-27T17:17:03.342Z,1.42
2023-02-27T17:19:31.007Z,2.28
2023-02-27T17:22:01.628Z,1.60
2023-02-27T17:24:29.599Z,1.40
2023-02-27T17:26:58.992Z,1.50
2023-02-27T17:29:26.437Z,1.60
2023-02-27T17:31:53.784Z,1.40
2023-02-27T17:34:21.082Z,1.60
2023-02-27T17:36:49.413Z,1.67
2023-02-27T17:39:17.061Z,1.80
2023-02-27T17:41:53.175Z,1.67
2023-02-27T17:44:21.320Z,2.20
2023-02-27T17:46:49.739Z,2.33
2023-02-27T17:49:18.106Z,2.88
2023-02-27T17:51:45.904Z,3.30
2023-02-27T17:54:13.188Z,2.03
2023-02-27T17:56:40.469Z,2.03
2023-02-27T17:59:09.324Z,2.05
2023-02-27T18:01:38.183Z,2.35
2023-02-27T18:04:08.125Z,3.20
2023-02-27T18:06:36.972Z,2.67
2023-02-27T18:09:04.952Z,1.90
2023-02-27T18:11:32.234Z,2.22
2023-02-27T18:14:01.950Z,2.40
2023-02-27T18:16:29.896Z,2.00
2023-02-27T18:18:57.568Z,2.30
2023-02-27T18:21:25.286Z,2.75
2023-02-27T18:23:53.150Z,2.70
2023-02-27T18:26:30.082Z,2.17
2023-02-27T18:29:09.106Z,1.85
2023-02-27T18:31:40.604Z,1.80
2023-02-27T18:36:37.212Z,1.90
2023-02-27T18:39:05.496Z,2.15
2023-02-27T18:41:34.925Z,1.80
2023-02-27T18:44:02.173Z,2.63
2023-02-27T18:46:29.972Z,2.70
2023-02-27T18:48:57.879Z,2.35
2023-02-27T18:51:34.178Z,2.40
2023-02-27T18:54:04.612Z,2.80
2023-02-27T18:56:33.279Z,2.50
2023-02-27T18:59:03.058Z,2.80
2023-02-27T19:01:34.156Z,2.92
2023-02-27T19:04:05.219Z,2.22
2023-02-27T19:06:40.515Z,2.30
2023-02-27T19:09:11.814Z,3.33
2023-02-27T19:11:39.366Z,2.80
2023-02-27T19:14:08.510Z,3.00
2023-02-27T19:16:37.124Z,3.05
2023-02-27T19:19:06.314Z,2.63
2023-02-27T19:21:34.087Z,2.58
2023-02-27T19:24:05.665Z,2.63
2023-02-27T19:26:38.745Z,3.08
2023-02-27T19:29:07.216Z,3.00
2023-02-27T19:31:37.994Z,3.40
2023-02-27T19:34:05.302Z,3.40
2023-02-27T19:36:34.793Z,3.40
2023-02-27T19:39:02.518Z,3.60
2023-02-27T19:41:33.111Z,3.67
2023-02-27T19:44:01.328Z,4.18
2023-02-27T19:46:31.789Z,3.63
2023-02-27T19:49:02.148Z,3.72
2023-02-27T19:51:29.798Z,3.78
2023-02-27T19:53:57.292Z,3.90
2023-02-27T19:56:32.054Z,3.30
2023-02-27T19:59:01.862Z,3.25
2023-02-27T20:01:32.610Z,3.22
2023-02-27T20:04:00.625Z,3.20
2023-02-27T20:06:29.683Z,3.10
2023-02-27T20:08:58.594Z,3.08
2023-02-27T20:11:29.530Z,2.90
2023-02-27T20:13:58.307Z,2.90
2023-02-27T20:16:28.903Z,3.53
2023-02-27T20:18:56.466Z,3.28
2023-02-27T20:21:29.036Z,3.03
2023-02-27T20:23:58.509Z,2.92
2023-02-27T20:26:28.353Z,3.17
2023-02-27T20:28:57.280Z,2.83
2023-02-27T20:31:28.666Z,3.05
2023-02-27T20:34:00.931Z,2.70
2023-02-27T20:36:28.878Z,2.85
2023-02-27T20:39:05.928Z,2.60
2023-02-27T20:41:34.756Z,2.50
2023-02-27T20:44:04.016Z,2.72
2023-02-27T20:46:33.409Z,2.50
2023-02-27T20:49:15.630Z,2.97
2023-02-27T20:51:43.083Z,2.92
2023-02-27T20:54:14.569Z,2.67
2023-02-27T20:59:21.743Z,2.60
2023-02-27T21:01:52.810Z,3.05
2023-02-27T21:04:21.723Z,3.00
2023-02-27T21:06:52.489Z,2.97
2023-02-27T21:09:20.785Z,2.45
2023-02-27T21:11:48.123Z,2.47
2023-02-27T21:14:15.400Z,2.30
2023-02-27T21:16:42.688Z,2.15
2023-02-27T21:19:12.056Z,2.17
2023-02-27T21:21:45.239Z,2.30
2023-02-27T21:24:15.094Z,2.40
2023-02-27T21:26:42.539Z,2.30
2023-02-27T21:29:15.421Z,2.10
2023-02-27T21:31:48.525Z,2.15
2023-02-27T21:34:17.455Z,2.20
2023-02-27T21:36:45.262Z,2.42
2023-02-27T21:39:16.267Z,2.20
2023-02-27T21:41:47.217Z,2.50
2023-02-27T21:44:25.505Z,2.22
2023-02-27T21:46:54.463Z,2.10
2023-02-27T21:49:24.436Z,2.30
2023-02-27T21:51:52.859Z,2.22
2023-02-27T21:54:21.645Z,3.05
2023-02-27T21:56:52.712Z,2.72
2023-02-27T21:59:22.589Z,2.88
2023-02-27T22:01:49.907Z,2.42
2023-02-27T22:04:19.686Z,2.78
2023-02-27T22:06:53.258Z,2.40
2023-02-27T22:09:20.649Z,2.47
2023-02-27T22:11:48.590Z,2.38
2023-02-27T22:14:16.118Z,2.10
2023-02-27T22:16:43.784Z,2.45
2023-02-27T22:19:14.054Z,2.45
2023-02-27T22:21:42.437Z,2.47
2023-02-27T22:24:11.618Z,2.92
2023-02-27T22:26:44.715Z,2.58
2023-02-27T22:29:13.143Z,2.60
2023-02-27T22:31:42.583Z,2.40
2023-02-27T22:34:12.292Z,2.53
2023-02-27T22:36:42.784Z,2.65
2023-02-27T22:39:13.235Z,2.60
2023-02-27T22:41:42.473Z,2.78
2023-02-27T22:44:12.054Z,2.30
2023-02-27T22:46:47.733Z,2.90
2023-02-27T22:49:19.424Z,2.20
2023-02-27T22:51:50.939Z,1.90
2023-02-27T22:54:19.001Z,1.70
2023-02-27T22:56:46.574Z,2.20
2023-02-27T22:59:20.588Z,2.30
2023-02-27T23:01:48.999Z,2.25
2023-02-27T23:04:19.187Z,2.50
2023-02-27T23:06:46.418Z,2.38
2023-02-27T23:09:16.323Z,2.25
2023-02-27T23:11:45.254Z,2.10
2023-02-27T23:14:14.197Z,2.22
2023-02-27T23:16:45.611Z,2.30
2023-02-27T23:19:22.733Z,2.00
2023-02-27T23:21:59.834Z,2.70
2023-02-27T23:24:29.500Z,1.83
2023-02-27T23:26:58.068Z,2.60
2023-02-27T23:29:26.363Z,2.78
2023-02-27T23:31:54.030Z,2.80
2023-02-27T23:34:21.495Z,2.70
2023-02-27T23:36:48.781Z,3.00
2023-02-27T23:39:16.171Z,2.65
2023-02-27T23:41:44.455Z,2.58
2023-02-27T23:44:14.832Z,2.92
2023-02-27T23:46:41.986Z,2.78
2023-02-27T23:49:14.687Z,2.75
2023-02-27T23:51:43.433Z,2.78
2023-02-27T23:54:13.690Z,2.85
2023-02-27T23:56:42.113Z,2.50
2023-02-27T23:59:09.434Z,3.17
